Terminal Aerodrome Forecast
Issued by NWS Wilmington, OH

Current Version | Previous Version | Graphics & Text | Print | Product List | Glossary On
Versions: 1 2 3 4 5 6 7 8 9 10 11 12 13 14 15 16 17 18 19
267
FTUS41 KILN 211122
TAFILN
TAF
KILN 211122Z 2112/2212 20012KT P6SM BKN200 WS020/22040KT
     FM211400 21014G24KT P6SM BKN200
     FM212300 24012KT P6SM VCSH BKN120
     FM220300 29012G18KT P6SM BKN035
      TEMPO 2203/2206 BKN025
     FM220600 30012KT P6SM SCT035=

USA.gov is the U.S. government's official web portal to all federal, state and local government web resources and services.